Terminal Aerodrome Forecast
Issued by NWS

Home | Current Version | Previous Version | Text Only | Print | Product List | Glossary Off
Versions: 1 2 3 4 5 6 7 8 9 10 11 12 13 14 15 16 17 18 19 20 21 22 23 24 25 26 27

000
FTUS43 KABR 201140
TAFPIR
TAF
KPIR 201140Z 2012/2112 22004KT 1/4SM FZFG OVC001
     FM201600 20004KT 3/4SM BR OVC003
     FM201800 19005KT 3SM BR BKN010
     FM202000 18005KT P6SM BKN025
     FM210200 17004KT 2SM BR OVC008=

USA.gov is the U.S. government's official web portal to all federal, state and local government web resources and services.